Flight Track Log - Related Links

Times and Time Zones

All times are in EDT time to prevent confusion due to time zone crossing. See the N244A flight status page for this flight to view local times or setup timezone preferences in your user account.


Time Position Orientation Groundspeed Altitude Reporting Facility
EDT Latitude Longitude Course Direction KTS MPH feet Rate Location/Type
Sun 07:02:22 PM 39.6308 -106.9506 72° East 172 198 7,600  Level Denver Center
Sun 07:03:24 PM 39.5978 -106.9972 227° Southwest 190 219 9,700 2,081 Climbing Denver Center
Sun 07:04:26 PM 39.6469 -107.0422 325° Northwest 248 285 11,900 2,274 Climbing Denver Center
Sun 07:05:28 PM 39.7272 -107.0744 343° North 286 329 14,400 2,710 Climbing Denver Center
Sun 07:06:00 PM 39.8341 -106.0267 74° East  Level Estimated
Sun 07:06:30 PM 39.7936 -107.0344 25° Northeast 299 344 17,500  Level Denver Center
Sun 07:07:00 PM 39.8654 -105.8781 72° East  Level Estimated
Sun 07:07:32 PM 39.8208 -106.9331 71° East 298 343 19,400  Level Denver Center
Sun 07:08:34 PM 39.8658 -106.8214 62° Northeast 346 398 22,300 2,129 Climbing Denver Center
Sun 07:09:36 PM 39.9161 -106.6842 64° Northeast 352 405 23,800 1,463 Climbing Denver Center
Sun 07:10:37 PM 39.9542 -106.5844 64° Northeast 372 428 25,300 1,210 Climbing Denver Center
Sun 07:11:40 PM 40.0133 -106.4161 65° Northeast 404 465 26,300 1,344 Climbing Denver Center
Sun 07:12:42 PM 40.0439 -106.2669 75° East 427 491 28,100 1,500 Climbing Denver Center
Sun 07:13:44 PM 40.0725 -106.1172 76° East 427 491 29,400 1,016 Climbing Denver Center
Sun 07:14:46 PM 40.1042 -105.9614 75° East 443 510 30,200 1,161 Climbing Denver Center
Sun 07:15:48 PM 40.1381 -105.8019 74° East 458 527 31,800 1,463 Climbing Denver Center
Sun 07:16:49 PM 40.1683 -105.6475 76° East 438 504 33,200 927 Climbing Denver Center
Sun 07:17:51 PM 40.1997 -105.4903 75° East 446 513 33,700 823 Climbing Denver Center
Sun 07:18:53 PM 40.2367 -105.3014 76° East 447 514 34,900 1,113 Climbing Denver Center
Sun 07:19:55 PM 40.2672 -105.1442 76° East 445 512 36,000 823 Climbing Denver Center
Sun 07:20:57 PM 40.2994 -104.9856 75° East 449 517 36,600 484 Climbing Denver Center
Sun 07:21:59 PM 40.3317 -104.8253 75° East 452 520 37,000 194 Climbing Denver Center
Sun 07:23:01 PM 40.3642 -104.6569 76° East 471 542 37,000  Level Denver Center
Sun 07:24:03 PM 40.3969 -104.4858 76° East 481 554 37,000  Level Denver Center
Sun 07:25:05 PM 40.4294 -104.3086 76° East 494 568 37,000  Level Denver Center
Sun 07:26:06 PM 40.4686 -104.0975 76° East 496 571 37,000  Level Denver Center
Sun 07:27:20 PM 40.5022 -103.9258 76° East 485 558 37,000  Level Denver Center
Sun 07:28:23 PM 40.5422 -103.7094 76° East 505 581 37,000  Level Denver Center
Sun 07:29:25 PM 40.5728 -103.5292 77° East 506 582 37,000  Level Denver Center
Sun 07:30:27 PM 40.5906 -103.3464 83° East 504 580 37,000 435 Level Denver Center
Sun 07:31:29 PM 40.6031 -103.1631 85° East 504 580 37,900 919 Climbing Denver Center
Sun 07:32:31 PM 40.6303 -102.9961 78° East 470 541 38,900 532 Climbing Denver Center
Sun 07:33:33 PM 40.6847 -102.8011 70° East 473 544 39,000 48 Climbing Denver Center
Sun 07:34:35 PM 40.7308 -102.6558 67° East 477 549 39,000  Level Denver Center
Sun 07:35:37 PM 40.7833 -102.4711 69° East 481 554 39,000  Level Denver Center
Sun 07:36:51 PM 40.8175 -102.3064 75° East 486 559 39,000  Level Denver Center
Sun 07:37:53 PM 40.8472 -102.0825 80° East 486 559 39,000  Level Denver Center
Sun 07:39:07 PM 40.8689 -101.8856 82° East 486 559 39,000  Level Denver Center
Sun 07:40:10 PM 40.8975 -101.6897 79° East 487 560 39,000  Level Denver Center
Sun 07:41:12 PM 40.9292 -101.4958 78° East 483 556 39,000  Level Denver Center
Sun 07:42:14 PM 40.9561 -101.3275 78° East 487 560 39,000  Level Denver Center
Sun 07:43:16 PM 40.9892 -101.1314 77° East 487 560 39,000  Level Denver Center
Sun 07:44:18 PM 41.0164 -100.9639 78° East 484 557 39,000  Level Denver Center
Sun 07:45:20 PM 41.0483 -100.7656 78° East 485 558 39,000  Level Denver Center
Sun 07:46:34 PM 41.0750 -100.5947 78° East 488 562 39,000  Level Denver Center
Sun 07:47:37 PM 41.1056 -100.3678 80° East 486 559 39,000  Level Denver Center
Sun 07:48:39 PM 41.1314 -100.1972 79° East 490 564 39,000  Level Denver Center
Sun 07:49:41 PM 41.1575 -99.9989 80° East 490 564 39,000  Level Denver Center
Sun 07:50:43 PM 41.1822 -99.8300 79° East 488 562 39,000  Level Denver Center
Sun 07:51:45 PM 41.2061 -99.6572 80° East 492 566 39,000  Level Denver Center
Sun 07:52:47 PM 41.2331 -99.4589 80° East 491 565 39,000  Level Denver Center
Sun 07:54:38 PM 41.2772 -99.1356 80° East 493 567 39,000  Level Minneapolis Center
Sun 07:55:40 PM 41.2989 -98.9525 81° East 498 573 39,000  Level Minneapolis Center
Sun 07:56:42 PM 41.3222 -98.7700 80° East 501 577 39,000  Level Minneapolis Center
Sun 07:57:55 PM 41.3431 -98.5881 81° East 500 575 39,000  Level Minneapolis Center
Sun 07:58:58 PM 41.3794 -98.3325 79° East 503 579 39,000  Level Minneapolis Center
Sun 08:00:00 PM 41.4033 -98.1525 80° East 499 574 39,000  Level Minneapolis Center
Sun 08:01:02 PM 41.4278 -97.9756 80° East 491 565 39,000  Level Minneapolis Center
Sun 08:02:04 PM 41.4483 -97.7967 81° East 488 562 39,000  Level Minneapolis Center
Sun 08:03:06 PM 41.4728 -97.6161 80° East 491 565 39,000  Level Minneapolis Center
Sun 08:04:08 PM 41.4953 -97.4347 81° East 493 567 39,000  Level Minneapolis Center
Sun 08:05:09 PM 41.5192 -97.2531 80° East 495 570 39,000  Level Minneapolis Center
Sun 08:06:11 PM 41.5461 -97.0367 80° East 494 568 39,000  Level Minneapolis Center
Sun 08:07:13 PM 41.5672 -96.8547 81° East 495 570 39,000  Level Minneapolis Center
Sun 08:08:15 PM 41.5889 -96.6725 81° East 495 570 39,000  Level Minneapolis Center
Sun 08:09:17 PM 41.6103 -96.4906 81° East 495 570 39,000  Level Minneapolis Center
Sun 08:10:18 PM 41.6308 -96.3081 81° East 499 574 39,000  Level Minneapolis Center
Sun 08:11:20 PM 41.6878 -96.1367 66° East 503 579 39,000  Level Minneapolis Center
Sun 08:12:22 PM 41.7839 -96.0111 44° Northeast 478 550 39,000  Level Minneapolis Center
Sun 08:13:24 PM 41.9028 -95.9306 27° Northeast 477 549 39,000  Level Minneapolis Center
Sun 08:14:26 PM 42.0386 -95.8294 29° Northeast 467 537 39,000  Level Minneapolis Center
Sun 08:15:27 PM 42.1156 -95.6858 54° Northeast 474 545 39,000  Level Minneapolis Center
Sun 08:16:29 PM 42.1369 -95.5078 81° East 484 557 39,000  Level Minneapolis Center
Sun 08:17:31 PM 42.1481 -95.3278 85° East 480 552 39,000  Level Minneapolis Center
Sun 08:18:33 PM 42.1606 -95.1461 85° East 482 555 39,000  Level Minneapolis Center
Sun 08:19:35 PM 42.1747 -94.9631 84° East 488 562 39,000  Level Minneapolis Center
Sun 08:20:37 PM 42.1872 -94.7753 85° East 498 573 39,000 -49 Level Minneapolis Center
Sun 08:21:38 PM 42.1997 -94.5922 85° East 492 566 38,900 -634 Descending Minneapolis Center
Sun 08:22:40 PM 42.2150 -94.3650 85° East 504 580 37,700 -871 Descending Minneapolis Center
Sun 08:23:42 PM 42.2272 -94.1878 85° East 506 582 37,100 -339 Descending Minneapolis Center
Sun 08:24:44 PM 42.2383 -94.0028 85° East 502 578 37,000 -48 Descending Minneapolis Center
Sun 08:25:46 PM 42.2511 -93.8161 85° East 504 580 37,000  Level Minneapolis Center
Sun 08:26:48 PM 42.2647 -93.5964 85° East 497 572 37,000  Level Minneapolis Center
Sun 08:28:02 PM 42.2614 -93.4136 91° East 493 567 37,000  Level Minneapolis Center
Sun 08:29:04 PM 42.2528 -93.1933 93° East 495 570 37,000 -343 Level Minneapolis Center
Sun 08:29:47 PM 42.2447 -93.0436 94° East 498 573 36,400 -971 Descending Chicago Center
Sun 08:30:49 PM 42.2319 -92.8578 95° East 503 579 35,300 -823 Descending Chicago Center
Sun 08:31:51 PM 42.2206 -92.6703 95° East 507 583 34,700 -484 Descending Chicago Center
Sun 08:32:53 PM 42.2144 -92.4842 92° East 504 580 34,300 -581 Descending Chicago Center
Sun 08:33:55 PM 42.2050 -92.2983 94° East 503 579 33,500 -968 Descending Chicago Center
Sun 08:34:57 PM 42.1914 -92.0731 95° East 509 586 32,300 -1,161 Descending Chicago Center
Sun 08:35:59 PM 42.1892 -91.8889 91° East 502 578 31,100 -1,306 Descending Chicago Center
Sun 08:37:01 PM 42.1967 -91.7022 87° East 506 582 29,600 -1,500 Descending Chicago Center
Sun 08:38:03 PM 42.2014 -91.5169 88° East 503 579 28,000 -1,742 Descending Chicago Center
Sun 08:39:05 PM 42.2022 -91.2908 90° East 510 587 26,000 -1,632 Descending Chicago Center
Sun 08:40:08 PM 42.2061 -91.1014 88° East 514 592 24,600 -1,344 Descending Chicago Center
Sun 08:41:10 PM 42.2072 -90.9164 89° East 502 578 23,200 -1,306 Descending Chicago Center
Sun 08:42:12 PM 42.2106 -90.7317 89° East 498 573 21,900 -1,645 Descending Chicago Center
Sun 08:43:14 PM 42.2144 -90.5167 89° East 484 557 19,800 -1,790 Descending Chicago Center
Sun 08:44:16 PM 42.2169 -90.3444 89° East 466 536 18,200 -1,500 Descending Chicago Center
Sun 08:45:18 PM 42.2192 -90.1797 89° East 448 516 16,700 -1,597 Descending Chicago Center
Sun 08:46:20 PM 42.2231 -90.0114 88° East 452 520 14,900 -1,452 Descending Chicago Center
Sun 08:47:22 PM 42.2247 -89.8164 89° East 444 511 13,700 -1,403 Descending Chicago Center
Sun 08:48:24 PM 42.2261 -89.6536 89° East 440 506 12,000 -1,597 Descending Chicago Center
Sun 08:49:26 PM 42.2261 -89.4903 90° East 437 503 10,400 -968 Descending Chicago Center
Sun 08:50:28 PM 42.2258 -89.3303 90° East 431 496 10,000 -242 Descending Chicago Center
Sun 08:51:30 PM 42.2308 -89.1867 87° East 385 443 9,900  Descending Chicago Center
Sun 08:52:32 PM 42.2631 -89.0597 71° East 360 414 10,000  Climbing Chicago Center
Sun 08:53:34 PM 42.2992 -88.8861 74° East 401 461 9,900 -1,258 Descending Chicago Center
Sun 08:54:36 PM 42.3236 -88.7642 75° East 346 398 7,400 -2,032 Descending Chicago Center
Sun 08:55:38 PM 42.3531 -88.6578 69° East 323 372 5,700 -1,210 Descending Chicago Center
Sun 08:56:40 PM 42.3844 -88.5656 65° Northeast 299 344 4,900 -387 Descending Chicago Center
Sun 08:57:42 PM 42.3858 -88.4769 89° East 266 306 4,900 -387 Level Chicago Center
Sun 08:58:44 PM 42.3725 -88.3692 99° East 246 283 4,100 -484 Descending Chicago Center
Sun 08:59:46 PM 42.3614 -88.2656 98° East 258 297 3,900 -97 Descending Chicago Center
Sun 09:00:48 PM 42.3517 -88.1664 98° East 265 305 3,900  Level Chicago Center
Sun 09:01:50 PM 42.3333 -88.0831 107° East 252 290 3,900 -145 Level Chicago Center
Sun 09:02:52 PM 42.2958 -88.0156 127° Southeast 237 273 3,600 -242 Descending Chicago Center
Sun 09:03:54 PM 42.2517 -87.9678 141° Southeast 223 257 3,400 -629 Descending Chicago Center
Sun 09:04:56 PM 42.2047 -87.9533 167° South 166 191 2,300 -823 Descending Chicago Center
Sun 09:05:58 PM 42.1747 -87.9356 156° South 139 160 1,700 -581 Descending Chicago Center
Sun 09:08:00 PM 42.1143 -87.9015 149° Southeast  Level Estimated

Login

Don't have an account? Register now (free) for customized features, flight alerts, and more!